Time;durP1;ratioP1;P1;durP2;ratioP2;P2;SDS_P1;SDS_P2;PMS_P1;PMS_P2;Temp;Humidity;BMP_temperature;BMP_pressure;BME280_temperature;BME280_humidity;BME280_pressure;Samples;Min_cycle;Max_cycle;Signal;HPM_P1;HPM_P2
2023/01/24 00:01:27;;;;;;;21.30;11.93;;;;;;;0.40;100.00;98649.97;4964577;28;20080;-68
2023/01/24 00:03:54;;;;;;;23.10;11.63;;;;;;;0.33;100.00;98649.75;4963758;28;20074;-66
2023/01/24 00:06:21;;;;;;;21.77;11.90;;;;;;;0.32;100.00;98646.22;4956927;28;20458;-67
2023/01/24 00:08:48;;;;;;;19.90;10.73;;;;;;;0.28;100.00;98647.53;4961392;28;20797;-66
2023/01/24 00:11:14;;;;;;;23.70;12.20;;;;;;;0.37;100.00;98651.94;4961311;28;20568;-67
2023/01/24 00:13:40;;;;;;;24.15;12.82;;;;;;;0.44;100.00;98646.81;4960812;28;20049;-66
2023/01/24 00:16:16;;;;;;;22.83;11.85;;;;;;;0.40;100.00;98649.97;4944295;28;20078;-67
2023/01/24 00:18:43;;;;;;;21.25;12.40;;;;;;;0.43;100.00;98652.28;4960460;28;20040;-67
2023/01/24 00:21:13;;;;;;;22.55;12.45;;;;;;;0.35;100.00;98647.75;4954800;28;20047;-67
2023/01/24 00:23:41;;;;;;;26.10;14.77;;;;;;;0.31;100.00;98649.03;4959672;28;20147;-67
2023/01/24 00:26:08;;;;;;;21.83;11.95;;;;;;;0.30;100.00;98648.22;4956157;28;20043;-67
2023/01/24 00:28:34;;;;;;;21.30;11.75;;;;;;;0.24;100.00;98648.81;4958234;28;20050;-66
2023/01/24 00:31:03;;;;;;;21.73;11.38;;;;;;;0.29;100.00;98643.88;4959787;28;20039;-66
2023/01/24 00:33:31;;;;;;;20.42;11.30;;;;;;;0.36;100.00;98644.09;4958361;28;20042;-67
2023/01/24 00:35:58;;;;;;;20.63;12.32;;;;;;;0.30;100.00;98645.56;4951855;28;20042;-66
2023/01/24 00:38:24;;;;;;;23.00;11.90;;;;;;;0.27;100.00;98642.34;4958202;28;20605;-66
2023/01/24 00:40:51;;;;;;;25.20;12.30;;;;;;;0.27;100.00;98637.03;4959390;28;20051;-66
2023/01/24 00:43:17;;;;;;;24.35;12.70;;;;;;;0.32;100.00;98635.56;4960175;28;20069;-67
2023/01/24 00:45:45;;;;;;;24.88;12.52;;;;;;;0.28;100.00;98630.69;4963168;28;20053;-66
2023/01/24 00:48:13;;;;;;;23.95;12.70;;;;;;;0.21;100.00;98631.31;4957648;28;20050;-67
2023/01/24 00:50:40;;;;;;;22.75;12.00;;;;;;;0.18;100.00;98641.47;4955143;28;20035;-66
2023/01/24 00:53:07;;;;;;;24.80;12.50;;;;;;;0.15;100.00;98645.28;4953919;28;20045;-66
2023/01/24 00:55:33;;;;;;;22.90;11.13;;;;;;;0.12;100.00;98653.56;4957327;28;20145;-66
2023/01/24 00:58:00;;;;;;;25.02;11.55;;;;;;;0.08;100.00;98657.50;4955358;28;20051;-67
2023/01/24 01:00:27;;;;;;;21.58;10.90;;;;;;;0.10;100.00;98658.19;4961255;28;20399;-67
2023/01/24 01:02:53;;;;;;;25.25;12.57;;;;;;;0.10;100.00;98663.50;4961600;28;20027;-66
2023/01/24 01:05:20;;;;;;;23.73;12.18;;;;;;;0.07;100.00;98656.66;4957531;28;20062;-65
2023/01/24 01:07:47;;;;;;;22.75;12.38;;;;;;;-0.06;100.00;98657.06;4959116;28;20122;-66
2023/01/24 01:10:13;;;;;;;24.55;12.15;;;;;;;0.05;100.00;98658.66;4956043;28;20062;-66
2023/01/24 01:12:40;;;;;;;23.77;12.98;;;;;;;0.04;100.00;98664.13;4953420;28;20126;-66
2023/01/24 01:15:07;;;;;;;22.88;12.00;;;;;;;-0.08;100.00;98658.22;4964216;28;20066;-66
2023/01/24 01:17:33;;;;;;;22.63;11.68;;;;;;;0.02;100.00;98660.78;4960366;28;20446;-66
2023/01/24 01:20:00;;;;;;;25.55;12.25;;;;;;;0.04;100.00;98664.13;4958054;28;20054;-66
2023/01/24 01:22:27;;;;;;;20.92;12.18;;;;;;;0.05;100.00;98663.13;4957673;28;20058;-67
2023/01/24 01:24:54;;;;;;;25.35;12.93;;;;;;;0.11;100.00;98662.53;4963027;28;20073;-66
2023/01/24 01:27:20;;;;;;;24.10;13.13;;;;;;;-0.05;100.00;98663.22;4962516;28;20735;-66
2023/01/24 01:29:47;;;;;;;23.23;12.70;;;;;;;-0.04;100.00;98670.22;4954199;28;20043;-66
2023/01/24 01:32:13;;;;;;;24.40;13.07;;;;;;;-0.14;100.00;98675.63;4952665;28;20066;-66
2023/01/24 01:34:40;;;;;;;23.80;12.75;;;;;;;-0.15;100.00;98669.44;4962262;28;20073;-66
2023/01/24 01:37:06;;;;;;;26.05;13.07;;;;;;;-0.07;100.00;98663.34;4963532;28;20759;-66
2023/01/24 01:39:33;;;;;;;24.00;12.20;;;;;;;0.14;100.00;98680.03;4958978;28;20047;-67
2023/01/24 01:41:59;;;;;;;21.92;11.52;;;;;;;0.15;100.00;98673.72;4962673;28;20655;-66
2023/01/24 01:44:49;;;;;;;24.17;12.50;;;;;;;0.24;100.00;98680.78;4980005;28;20533;-66
2023/01/24 01:47:27;;;;;;;21.88;11.20;;;;;;;0.23;100.00;98669.28;4958476;28;20097;-66
2023/01/24 01:50:11;;;;;;;23.35;11.38;;;;;;;0.17;100.00;98672.56;4956904;28;20549;-67
2023/01/24 01:52:41;;;;;;;21.60;11.10;;;;;;;0.19;100.00;98672.44;4958555;28;20042;-67
2023/01/24 01:55:14;;;;;;;21.13;11.68;;;;;;;0.09;100.00;98676.00;4955310;28;20077;-67
2023/01/24 01:57:41;;;;;;;23.63;12.23;;;;;;;0.08;100.00;98681.47;4962789;28;20043;-66
2023/01/24 02:00:15;;;;;;;22.33;11.57;;;;;;;0.06;100.00;98670.97;4964127;28;20117;-66
2023/01/24 02:02:48;;;;;;;23.20;10.70;;;;;;;0.14;100.00;98677.38;4959317;28;20430;-67
2023/01/24 02:05:22;;;;;;;23.77;11.98;;;;;;;0.10;100.00;98683.00;4954709;28;20063;-66
2023/01/24 02:07:55;;;;;;;23.58;11.82;;;;;;;0.20;100.00;98676.75;4954652;28;20414;-67
2023/01/24 02:10:24;;;;;;;23.58;11.68;;;;;;;0.18;100.00;98676.09;4963286;28;20055;-67
2023/01/24 02:12:54;;;;;;;26.25;13.68;;;;;;;0.21;100.00;98676.59;4964034;28;20039;-66
2023/01/24 02:18:41;;;;;;;21.67;11.57;;;;;;;0.22;100.00;98680.94;4942012;28;20477;-66
2023/01/24 02:21:11;;;;;;;23.85;11.57;;;;;;;0.22;100.00;98683.59;4940755;28;20051;-66
2023/01/24 02:23:55;;;;;;;23.23;11.48;;;;;;;0.22;100.00;98683.59;4955157;28;20582;-66
2023/01/24 02:26:24;;;;;;;21.17;11.23;;;;;;;0.24;100.00;98680.78;4960265;28;20054;-66
2023/01/24 02:28:56;;;;;;;23.45;11.80;;;;;;;0.36;100.00;98676.06;4960082;28;20046;-66
2023/01/24 02:31:24;;;;;;;20.13;11.15;;;;;;;0.28;100.00;98690.16;4957502;28;20051;-67
2023/01/24 02:33:50;;;;;;;23.42;12.02;;;;;;;0.23;100.00;98692.44;4959035;28;20133;-66
2023/01/24 02:36:24;;;;;;;21.05;10.93;;;;;;;0.24;100.00;98694.13;4952896;28;20047;-67
2023/01/24 02:38:58;;;;;;;22.20;11.60;;;;;;;0.26;100.00;98697.47;4960932;28;20078;-66
2023/01/24 02:41:29;;;;;;;21.05;11.85;;;;;;;0.08;100.00;98698.28;4970614;28;20526;-66
2023/01/24 02:44:01;;;;;;;21.45;10.45;;;;;;;0.02;100.00;98701.56;4960799;28;20050;-66
2023/01/24 02:46:30;;;;;;;24.70;11.23;;;;;;;0.08;100.00;98705.47;4951048;28;20506;-66
2023/01/24 02:48:57;;;;;;;21.90;11.63;;;;;;;0.04;100.00;98694.25;4981480;28;20054;-66
2023/01/24 02:54:08;;;;;;;22.65;11.85;;;;;;;-0.02;100.00;98710.84;4954962;28;20110;-66
2023/01/24 02:59:20;;;;;;;20.55;10.93;;;;;;;0.09;100.00;98720.44;4965302;28;20497;-66
2023/01/24 03:01:47;;;;;;;22.67;11.27;;;;;;;0.14;100.00;98712.00;4961255;28;20039;-67
2023/01/24 03:04:15;;;;;;;27.77;13.20;;;;;;;0.09;100.00;98717.78;4955048;28;20035;-66
2023/01/24 03:06:42;;;;;;;22.50;10.52;;;;;;;0.15;100.00;98722.53;4966658;28;20047;-66
2023/01/24 03:09:18;;;;;;;18.40;10.77;;;;;;;0.24;100.00;98710.09;4963803;28;20077;-66
2023/01/24 03:11:48;;;;;;;23.90;11.68;;;;;;;0.17;100.00;98711.69;4983297;28;20047;-67
2023/01/24 03:36:31;;;;;;;26.30;13.25;;;;;;;-0.08;100.00;98709.63;4960995;28;20050;-66
2023/01/24 03:41:44;;;;;;;23.67;11.98;;;;;;;-0.04;100.00;98710.16;4961588;28;20645;-66
2023/01/24 03:44:11;;;;;;;23.00;12.07;;;;;;;-0.01;100.00;98701.84;4963215;28;20034;-66
2023/01/24 03:46:39;;;;;;;27.05;12.13;;;;;;;-0.06;100.00;98707.66;4951804;28;20077;-66
2023/01/24 03:49:08;;;;;;;24.38;11.23;;;;;;;0.01;100.00;98710.56;4961163;28;20563;-66
2023/01/24 03:54:21;;;;;;;22.02;10.73;;;;;;;0.00;100.00;98719.53;4956901;28;20527;-66
2023/01/24 03:56:56;;;;;;;26.52;13.38;;;;;;;-0.09;100.00;98710.59;4960394;28;20049;-66
2023/01/24 03:59:23;;;;;;;22.50;11.80;;;;;;;-0.03;100.00;98719.81;4960764;28;20066;-66
2023/01/24 04:01:50;;;;;;;24.80;12.98;;;;;;;-0.02;100.00;98724.16;4963392;28;20129;-66
2023/01/24 04:05:11;;;;;;;24.45;12.27;;;;;;;-0.06;100.00;98718.31;4965143;28;20081;-66
2023/01/24 04:07:11;;;;;;;23.23;11.88;;;;;;;-0.11;100.00;98717.06;4966973;28;20035;-66
2023/01/24 04:09:52;;;;;;;25.85;11.73;;;;;;;-0.05;100.00;98717.31;4983656;28;20042;-67
2023/01/24 04:12:20;;;;;;;25.77;12.38;;;;;;;-0.10;100.00;98714.25;4973723;28;20047;-67
2023/01/24 04:14:46;;;;;;;23.60;11.73;;;;;;;-0.09;100.00;98720.41;4959859;28;20090;-66
2023/01/24 04:17:13;;;;;;;25.42;11.77;;;;;;;-0.07;100.00;98721.94;4962076;28;20039;-66
2023/01/24 04:19:47;;;;;;;20.67;11.73;;;;;;;-0.05;100.00;98721.78;4965232;28;20474;-66
2023/01/24 04:22:15;;;;;;;27.48;12.63;;;;;;;0.01;100.00;98726.53;4963195;28;20126;-66
2023/01/24 04:24:44;;;;;;;24.42;11.10;;;;;;;0.08;100.00;98716.09;4964888;28;20039;-66
2023/01/24 04:27:11;;;;;;;21.88;10.93;;;;;;;0.07;100.00;98714.44;4963876;28;20043;-66
2023/01/24 04:30:13;;;;;;;22.17;11.98;;;;;;;0.14;100.00;98715.50;4962024;28;20094;-66
2023/01/24 04:32:41;;;;;;;24.20;11.83;;;;;;;0.12;100.00;98709.50;4962100;28;20039;-66
2023/01/24 04:35:23;;;;;;;22.65;11.85;;;;;;;0.08;100.00;98716.09;4961450;28;20299;-66
2023/01/24 04:37:57;;;;;;;23.17;11.93;;;;;;;0.19;100.00;98709.72;4954164;28;20149;-67
2023/01/24 04:40:34;;;;;;;20.33;10.75;;;;;;;0.18;100.00;98708.88;4962315;28;20522;-66
2023/01/24 04:43:00;;;;;;;24.25;12.18;;;;;;;0.14;100.00;98717.34;4959767;28;20534;-66
2023/01/24 04:45:27;;;;;;;25.30;11.43;;;;;;;0.02;100.00;98717.53;4952654;28;20039;-66
2023/01/24 04:47:56;;;;;;;25.33;13.55;;;;;;;0.05;100.00;98714.59;4958940;28;20684;-66
2023/01/24 04:50:23;;;;;;;24.48;11.57;;;;;;;0.07;100.00;98715.25;4957305;28;20042;-63
2023/01/24 04:52:50;;;;;;;25.70;12.80;;;;;;;0.04;100.00;98709.41;4954174;28;20035;-63
2023/01/24 04:55:17;;;;;;;27.13;13.18;;;;;;;-0.13;100.00;98725.22;4957445;28;20054;-63
2023/01/24 04:57:43;;;;;;;26.05;12.90;;;;;;;-0.18;100.00;98727.47;4958643;28;20046;-63
2023/01/24 05:00:10;;;;;;;24.25;11.98;;;;;;;-0.11;100.00;98725.88;4956308;28;20038;-63
2023/01/24 05:02:37;;;;;;;27.27;14.40;;;;;;;-0.18;100.00;98722.97;4963214;28;20101;-63
2023/01/24 05:05:05;;;;;;;25.60;12.93;;;;;;;-0.19;100.00;98725.81;4958162;28;20642;-63
2023/01/24 05:07:32;;;;;;;24.42;13.45;;;;;;;-0.25;100.00;98734.38;4959623;28;20078;-63
2023/01/24 05:10:05;;;;;;;29.15;13.65;;;;;;;-0.24;100.00;98728.06;4960924;28;20058;-62
2023/01/24 05:12:32;;;;;;;25.38;14.30;;;;;;;-0.24;100.00;98734.25;4959797;28;20137;-62
2023/01/24 05:15:04;;;;;;;26.13;14.23;;;;;;;-0.17;100.00;98727.34;4952141;28;20089;-63
2023/01/24 05:17:31;;;;;;;27.38;13.93;;;;;;;-0.20;100.00;98727.63;4953542;28;20442;-63
2023/01/24 05:19:57;;;;;;;27.35;13.40;;;;;;;-0.15;100.00;98733.34;4986283;28;20097;-62
2023/01/24 05:22:24;;;;;;;23.73;13.05;;;;;;;-0.24;100.00;98728.91;4952602;28;20533;-63
2023/01/24 05:24:51;;;;;;;25.20;12.52;;;;;;;-0.21;100.00;98728.63;4958623;28;20051;-63
2023/01/24 05:27:17;;;;;;;27.08;13.35;;;;;;;-0.20;100.00;98732.97;4953025;28;20043;-62
2023/01/24 05:29:52;;;;;;;28.85;13.68;;;;;;;-0.18;100.00;98746.94;4958481;28;20070;-63
2023/01/24 05:32:19;;;;;;;28.90;13.68;;;;;;;-0.20;100.00;98743.59;4958464;28;20685;-63
2023/01/24 05:34:45;;;;;;;27.05;14.13;;;;;;;-0.17;100.00;98745.97;4959445;28;20051;-63
2023/01/24 05:37:14;;;;;;;26.17;13.07;;;;;;;-0.24;100.00;98749.34;4957967;28;20046;-62
2023/01/24 05:39:42;;;;;;;27.23;13.70;;;;;;;-0.30;100.00;98746.31;4951984;28;20057;-63
2023/01/24 05:42:08;;;;;;;25.58;12.75;;;;;;;-0.29;100.00;98744.50;4956400;28;20642;-63
2023/01/24 05:44:47;;;;;;;28.58;13.77;;;;;;;-0.25;100.00;98745.03;4955028;28;20469;-63
2023/01/24 05:47:14;;;;;;;31.17;13.75;;;;;;;-0.34;100.00;98752.91;4955214;28;20066;-63
2023/01/24 05:49:43;;;;;;;30.83;14.93;;;;;;;-0.33;100.00;98753.75;4955424;28;20042;-62
2023/01/24 05:52:10;;;;;;;29.00;13.52;;;;;;;-0.32;100.00;98750.09;4955716;28;20514;-64
2023/01/24 05:54:48;;;;;;;26.98;14.18;;;;;;;-0.33;100.00;98751.09;4955468;28;20565;-64
2023/01/24 05:57:26;;;;;;;33.30;14.73;;;;;;;-0.36;100.00;98757.56;4958018;28;20434;-64
2023/01/24 06:00:19;;;;;;;23.65;12.63;;;;;;;-0.32;100.00;98761.59;4952164;28;20073;-64
2023/01/24 06:03:11;;;;;;;31.30;16.25;;;;;;;-0.23;100.00;98759.06;4953913;28;20094;-63
2023/01/24 06:05:38;;;;;;;26.83;13.80;;;;;;;-0.18;100.00;98759.44;4951976;28;20046;-63
2023/01/24 06:08:05;;;;;;;28.02;14.18;;;;;;;-0.22;100.00;98756.22;4960126;28;20046;-63
2023/01/24 06:10:32;;;;;;;29.13;14.57;;;;;;;-0.34;100.00;98765.41;4950568;28;20589;-64
2023/01/24 06:13:04;;;;;;;34.00;15.70;;;;;;;-0.32;100.00;98769.59;4952472;28;20054;-63
2023/01/24 06:15:31;;;;;;;31.40;14.45;;;;;;;-0.28;100.00;98775.44;4958254;28;20046;-63
2023/01/24 06:17:58;;;;;;;30.77;14.50;;;;;;;-0.22;100.00;98771.38;4956953;28;20069;-63
2023/01/24 06:20:25;;;;;;;30.65;14.70;;;;;;;-0.12;100.00;98779.31;4958954;28;20203;-63
2023/01/24 06:22:59;;;;;;;31.05;14.68;;;;;;;-0.22;100.00;98771.38;4952053;28;20035;-63
2023/01/24 06:25:26;;;;;;;26.60;12.93;;;;;;;-0.19;100.00;98779.88;4983824;28;20059;-63
2023/01/24 06:27:53;;;;;;;30.33;13.48;;;;;;;-0.13;100.00;98778.47;4957834;28;20078;-62
2023/01/24 06:30:20;;;;;;;26.88;13.02;;;;;;;-0.04;100.00;98784.72;4959549;28;20126;-63
2023/01/24 06:32:49;;;;;;;26.85;13.00;;;;;;;0.03;100.00;98785.78;4958839;28;20077;-63
2023/01/24 06:35:45;;;;;;;29.05;13.15;;;;;;;0.20;100.00;98783.31;4960895;28;20055;-63
2023/01/24 06:38:20;;;;;;;26.45;13.45;;;;;;;0.22;100.00;98781.34;4959023;28;20143;-63
2023/01/24 06:40:52;;;;;;;26.48;13.52;;;;;;;0.09;100.00;98784.38;4953090;28;20651;-62
2023/01/24 06:43:19;;;;;;;27.33;13.52;;;;;;;0.19;100.00;98785.13;4956784;28;20122;-62
2023/01/24 06:45:45;;;;;;;25.30;13.60;;;;;;;0.16;100.00;98787.25;4958727;28;20124;-62
2023/01/24 06:48:12;;;;;;;27.55;13.57;;;;;;;0.16;100.00;98793.44;4959218;28;20053;-62
2023/01/24 06:50:38;;;;;;;26.08;13.73;;;;;;;0.22;100.00;98794.69;4957923;28;20082;-62
2023/01/24 06:53:05;;;;;;;26.20;12.60;;;;;;;0.22;100.00;98797.34;4959285;28;20413;-62
2023/01/24 06:55:31;;;;;;;25.38;12.73;;;;;;;0.32;100.00;98792.78;4958043;28;20494;-63
2023/01/24 06:57:59;;;;;;;26.75;14.27;;;;;;;0.26;100.00;98798.72;4961586;28;20157;-62
2023/01/24 07:00:28;;;;;;;25.42;12.77;;;;;;;0.20;100.00;98804.63;4963318;28;20139;-62
2023/01/24 07:03:06;;;;;;;26.23;12.52;;;;;;;0.35;100.00;98803.13;4960926;28;20043;-62
2023/01/24 07:05:37;;;;;;;26.20;12.65;;;;;;;0.16;100.00;98805.91;4959092;28;20670;-62
2023/01/24 07:08:04;;;;;;;;;;;;;;;0.03;100.00;98820.41;4956951;28;20120;-63
2023/01/24 07:10:31;;;;;;;26.52;12.60;;;;;;;0.02;100.00;98815.22;4956763;28;19968;-62
2023/01/24 07:12:58;;;;;;;25.88;12.10;;;;;;;0.11;100.00;98817.03;4956383;28;20050;-62
2023/01/24 07:15:25;;;;;;;25.33;12.48;;;;;;;0.17;100.00;98816.41;4962644;28;20050;-62
2023/01/24 07:17:51;;;;;;;27.38;13.00;;;;;;;0.10;100.00;98818.84;4955025;28;20070;-62
2023/01/24 07:20:18;;;;;;;24.63;12.90;;;;;;;0.07;100.00;98819.13;4963092;28;20043;-62
2023/01/24 07:22:45;;;;;;;24.77;11.95;;;;;;;0.14;100.00;98827.38;4958542;28;20078;-62
2023/01/24 07:25:18;;;;;;;28.10;14.02;;;;;;;-0.03;100.00;98827.16;4964667;28;20496;-61
2023/01/24 07:27:45;;;;;;;27.42;13.15;;;;;;;0.07;100.00;98831.63;4954054;28;20066;-62
2023/01/24 07:30:12;;;;;;;29.45;14.50;;;;;;;0.26;100.00;98825.34;4958073;28;20102;-62
2023/01/24 07:32:39;;;;;;;31.63;13.88;;;;;;;0.19;100.00;98826.94;4964841;28;20031;-61
2023/01/24 07:35:06;;;;;;;27.33;13.55;;;;;;;0.11;100.00;98833.84;4962936;28;20035;-62
2023/01/24 07:37:33;;;;;;;31.58;14.20;;;;;;;-0.03;100.00;98835.16;4962865;28;20118;-61
2023/01/24 07:39:59;;;;;;;28.23;13.70;;;;;;;0.03;100.00;98833.72;4961014;28;20475;-62
2023/01/24 07:42:26;;;;;;;26.90;12.93;;;;;;;0.13;100.00;98839.00;4957804;28;20051;-61
2023/01/24 07:44:53;;;;;;;28.02;12.93;;;;;;;0.24;100.00;98843.31;4957865;28;20046;-62
2023/01/24 07:47:20;;;;;;;28.90;13.43;;;;;;;-0.02;100.00;98846.66;4962070;28;20050;-62
2023/01/24 07:49:46;;;;;;;24.73;12.55;;;;;;;0.01;100.00;98846.38;4957872;28;20059;-62
2023/01/24 07:52:13;;;;;;;26.50;13.10;;;;;;;0.15;100.00;98844.19;4953350;28;20055;-62
2023/01/24 07:54:39;;;;;;;25.10;12.93;;;;;;;0.15;100.00;98850.38;4948613;28;21000;-67
2023/01/24 07:57:07;;;;;;;26.33;13.30;;;;;;;0.33;100.00;98855.72;4915187;28;20541;-66
2023/01/24 07:59:34;;;;;;;26.63;13.13;;;;;;;0.15;100.00;98842.38;4924783;28;20712;-66
2023/01/24 08:02:05;;;;;;;28.17;14.13;;;;;;;0.10;100.00;98850.81;4950660;28;20047;-68
2023/01/24 08:04:32;;;;;;;27.98;12.85;;;;;;;0.33;100.00;98850.41;4952492;28;20102;-64
2023/01/24 08:07:18;;;;;;;28.05;12.18;;;;;;;0.16;100.00;98851.19;4957289;28;20461;-64
2023/01/24 08:09:46;;;;;;;30.05;14.40;;;;;;;-0.10;100.00;98855.38;4956690;28;20557;-61
2023/01/24 08:12:13;;;;;;;27.42;12.27;;;;;;;-0.01;100.00;98857.16;4958670;28;20498;-61
2023/01/24 08:14:40;;;;;;;31.38;14.20;;;;;;;-0.10;100.00;98857.19;4957088;28;20068;-61
2023/01/24 08:17:07;;;;;;;28.38;13.27;;;;;;;0.14;100.00;98856.66;4954253;28;20046;-60
2023/01/24 08:19:35;;;;;;;26.55;11.95;;;;;;;0.30;100.00;98863.19;4959923;28;20469;-60
2023/01/24 08:22:21;;;;;;;25.75;13.18;;;;;;;0.11;100.00;98873.78;4956883;28;20062;-60
2023/01/24 08:24:47;;;;;;;25.75;13.65;;;;;;;-0.01;100.00;98873.16;4958439;28;20066;-60
2023/01/24 08:27:13;;;;;;;29.35;13.35;;;;;;;-0.11;100.00;98877.66;4957525;28;20051;-60
2023/01/24 08:29:40;;;;;;;31.27;13.73;;;;;;;0.02;100.00;98879.16;4961425;28;20293;-61
2023/01/24 08:32:06;;;;;;;27.65;13.93;;;;;;;-0.06;100.00;98880.75;4959239;28;20042;-61
2023/01/24 08:34:33;;;;;;;31.10;14.27;;;;;;;0.10;100.00;98885.44;4954875;28;20105;-61
2023/01/24 08:37:00;;;;;;;24.52;12.77;;;;;;;0.15;100.00;98887.66;4952008;28;20085;-61
2023/01/24 08:39:26;;;;;;;28.35;14.52;;;;;;;0.04;100.00;98882.53;4958644;28;20589;-61
2023/01/24 08:41:54;;;;;;;29.75;13.35;;;;;;;0.23;100.00;98890.41;4957259;28;20073;-62
2023/01/24 08:44:21;;;;;;;32.17;15.25;;;;;;;0.08;100.00;98894.56;4956970;28;20510;-61
2023/01/24 08:46:48;;;;;;;26.63;13.32;;;;;;;0.12;100.00;98893.28;4955303;28;20506;-61
2023/01/24 08:49:14;;;;;;;30.00;14.88;;;;;;;0.11;100.00;98888.94;4958754;28;20043;-61
2023/01/24 08:51:41;;;;;;;28.58;13.20;;;;;;;0.11;100.00;98892.44;4957369;28;20058;-60
2023/01/24 08:54:07;;;;;;;29.30;14.90;;;;;;;-0.01;100.00;98889.13;4951968;28;20054;-63
2023/01/24 08:56:34;;;;;;;27.70;14.23;;;;;;;0.23;100.00;98906.38;4955585;28;20151;-60
2023/01/24 08:59:00;;;;;;;29.17;14.02;;;;;;;0.19;100.00;98901.53;4955541;28;20062;-61
2023/01/24 09:01:27;;;;;;;30.58;12.75;;;;;;;0.15;100.00;98897.47;4958367;28;20043;-62
2023/01/24 09:03:55;;;;;;;26.45;13.52;;;;;;;0.21;100.00;98894.22;4954673;28;20213;-60
2023/01/24 09:06:22;;;;;;;26.48;12.55;;;;;;;0.30;100.00;98895.16;4951468;28;20043;-62
2023/01/24 09:08:51;;;;;;;28.60;14.45;;;;;;;0.28;100.00;98905.97;4953339;28;20043;-61
2023/01/24 09:11:18;;;;;;;28.65;14.60;;;;;;;0.23;100.00;98906.38;4950392;28;20880;-61
2023/01/24 09:13:44;;;;;;;30.30;13.38;;;;;;;0.20;100.00;98898.72;4952060;28;20130;-60
2023/01/24 09:16:11;;;;;;;25.92;12.65;;;;;;;0.46;100.00;98906.03;4954210;28;20097;-61
2023/01/24 09:18:38;;;;;;;26.35;13.38;;;;;;;0.41;100.00;98902.13;4948492;28;20038;-61
2023/01/24 09:21:04;;;;;;;23.48;11.65;;;;;;;0.48;100.00;98905.88;4955630;28;20434;-60
2023/01/24 09:23:31;;;;;;;24.88;13.15;;;;;;;0.50;100.00;98909.22;4963144;28;20609;-61
2023/01/24 09:25:57;;;;;;;27.15;14.43;;;;;;;0.37;100.00;98920.25;4959171;28;20035;-61
2023/01/24 09:28:24;;;;;;;23.92;12.35;;;;;;;0.56;100.00;98915.78;4955846;28;20050;-60
2023/01/24 09:30:51;;;;;;;22.67;12.52;;;;;;;0.46;100.00;98919.34;4952738;28;20067;-63
2023/01/24 09:33:18;;;;;;;26.45;12.88;;;;;;;0.38;100.00;98920.06;4957155;28;20067;-60
2023/01/24 09:35:58;;;;;;;23.70;11.77;;;;;;;0.34;100.00;98921.34;4955943;28;20062;-60
2023/01/24 09:38:27;;;;;;;28.75;13.35;;;;;;;0.34;100.00;98916.00;4957603;28;20082;-62
2023/01/24 09:41:08;;;;;;;27.38;13.25;;;;;;;0.41;100.00;98924.28;4953622;28;20799;-62
2023/01/24 09:43:49;;;;;;;24.20;12.10;;;;;;;0.58;100.00;98919.97;4958438;28;20039;-61
2023/01/24 09:46:25;;;;;;;28.13;13.80;;;;;;;0.61;100.00;98921.50;4949490;28;20050;-61
2023/01/24 09:49:03;;;;;;;27.90;13.52;;;;;;;0.57;100.00;98928.13;4956388;28;20045;-62
2023/01/24 09:51:33;;;;;;;29.15;13.48;;;;;;;0.49;100.00;98926.19;4956423;28;20046;-61
2023/01/24 09:54:05;;;;;;;24.97;12.57;;;;;;;0.60;100.00;98927.81;4953944;28;20126;-62
2023/01/24 09:56:42;;;;;;;25.02;12.27;;;;;;;0.56;100.00;98931.78;4963655;28;20729;-61
2023/01/24 09:59:29;;;;;;;27.23;13.45;;;;;;;0.56;100.00;98923.78;4959770;28;20043;-61
2023/01/24 10:01:56;;;;;;;28.83;13.90;;;;;;;0.52;100.00;98928.59;4953429;28;20074;-62
2023/01/24 10:04:33;;;;;;;28.38;13.27;;;;;;;0.58;100.00;98927.97;4957660;28;20039;-61
2023/01/24 10:07:31;;;;;;;25.13;12.52;;;;;;;0.67;100.00;98928.91;4957494;28;20105;-63
2023/01/24 10:10:07;;;;;;;23.50;12.88;;;;;;;0.77;100.00;98927.00;4957775;28;20050;-62
2023/01/24 10:12:47;;;;;;;25.88;12.43;;;;;;;0.79;100.00;98924.22;4955408;28;20046;-63
2023/01/24 10:15:28;;;;;;;23.40;12.25;;;;;;;0.76;100.00;98927.16;4955585;28;20689;-62
2023/01/24 10:18:10;;;;;;;28.63;13.05;;;;;;;0.61;100.00;98921.50;4960238;28;20435;-62
2023/01/24 10:20:51;;;;;;;23.40;11.23;;;;;;;0.78;100.00;98928.69;4948138;28;20102;-62
2023/01/24 10:23:23;;;;;;;23.10;12.85;;;;;;;0.71;100.00;98924.13;4934129;28;20770;-63
2023/01/24 10:25:58;;;;;;;37.75;20.30;;;;;;;0.88;100.00;98914.44;4954697;28;20110;-62
2023/01/24 10:28:34;;;;;;;48.13;25.75;;;;;;;0.72;100.00;98915.97;4954316;28;20113;-62
2023/01/24 10:31:25;;;;;;;32.25;16.80;;;;;;;0.50;100.00;98909.22;4954202;28;20688;-62
2023/01/24 10:34:06;;;;;;;27.30;14.40;;;;;;;0.72;100.00;98913.31;4946702;28;20045;-63
2023/01/24 10:36:52;;;;;;;23.52;13.93;;;;;;;0.63;100.00;98908.88;4952626;28;20098;-63
2023/01/24 10:39:18;;;;;;;22.98;11.75;;;;;;;0.60;100.00;98910.00;4953862;28;20055;-63
2023/01/24 10:41:45;;;;;;;23.95;11.13;;;;;;;0.62;100.00;98909.84;4954227;28;20823;-63
2023/01/24 10:44:14;;;;;;;25.13;12.50;;;;;;;0.43;100.00;98911.63;4949778;28;20039;-63
2023/01/24 10:47:02;;;;;;;28.15;14.77;;;;;;;0.46;100.00;98910.50;4956804;28;20061;-63
2023/01/24 10:49:35;;;;;;;22.77;12.25;;;;;;;0.48;100.00;98913.88;4954151;28;20054;-63
2023/01/24 10:52:16;;;;;;;21.27;10.73;;;;;;;0.50;100.00;98903.88;4948062;28;20046;-63
2023/01/24 10:54:53;;;;;;;22.40;11.23;;;;;;;0.52;100.00;98907.25;4939384;28;20550;-63
2023/01/24 10:57:27;;;;;;;25.35;12.63;;;;;;;0.61;100.00;98903.69;4954650;28;20584;-63
2023/01/24 10:59:54;;;;;;;19.05;11.05;;;;;;;0.55;100.00;98900.78;4956970;28;20075;-63
2023/01/24 11:02:23;;;;;;;26.67;11.63;;;;;;;0.56;100.00;98905.97;4948619;28;20099;-63
2023/01/24 11:04:59;;;;;;;23.35;11.98;;;;;;;0.64;100.00;98908.72;4950626;28;20094;-63
2023/01/24 11:07:29;;;;;;;18.50;10.73;;;;;;;0.62;100.00;98905.34;4949876;28;20556;-63
2023/01/24 11:09:59;;;;;;;21.20;11.52;;;;;;;0.75;100.00;98898.81;4951114;28;21278;-63
2023/01/24 11:12:27;;;;;;;22.75;11.23;;;;;;;0.64;100.00;98895.41;4953782;28;20529;-64
2023/01/24 11:14:54;;;;;;;21.85;11.68;;;;;;;0.62;100.00;98894.69;4953401;28;20098;-64
2023/01/24 11:17:34;;;;;;;17.80;10.70;;;;;;;0.57;100.00;98888.97;4956760;28;20047;-64
2023/01/24 11:20:22;;;;;;;22.30;11.65;;;;;;;0.61;100.00;98901.03;4949904;28;20051;-64
2023/01/24 11:22:51;;;;;;;22.98;11.60;;;;;;;0.88;100.00;98899.28;4954373;28;20102;-64
2023/01/24 11:25:18;;;;;;;20.05;11.25;;;;;;;0.80;100.00;98896.53;4954375;28;20569;-64
2023/01/24 11:27:49;;;;;;;22.55;11.57;;;;;;;0.87;100.00;98902.97;4953106;28;20050;-62
2023/01/24 11:30:21;;;;;;;21.63;10.90;;;;;;;1.00;100.00;98893.75;4954058;28;20074;-64
2023/01/24 11:33:06;;;;;;;23.05;11.27;;;;;;;1.00;100.00;98899.91;4960448;28;20103;-64
2023/01/24 11:35:42;;;;;;;23.30;11.25;;;;;;;1.16;100.00;98891.22;4935437;28;20090;-63
2023/01/24 11:38:25;;;;;;;21.63;10.73;;;;;;;0.97;100.00;98896.72;4939401;28;20097;-63
2023/01/24 11:41:15;;;;;;;19.90;10.23;;;;;;;1.19;100.00;98890.06;4929720;28;20324;-63
2023/01/24 11:44:10;;;;;;;21.25;11.40;;;;;;;1.07;100.00;98880.63;4922618;28;20042;-64
2023/01/24 11:47:09;;;;;;;21.20;10.90;;;;;;;1.18;100.00;98880.38;4913987;28;20039;-64
2023/01/24 11:50:22;;;;;;;18.50;10.68;;;;;;;1.11;100.00;98882.00;4906249;28;20059;-65
2023/01/24 11:52:58;;;;;;;18.27;9.63;;;;;;;1.31;100.00;98882.66;4919176;28;20762;-62
2023/01/24 11:55:46;;;;;;;20.45;10.40;;;;;;;1.15;100.00;98884.19;4954343;28;20070;-62
2023/01/24 11:58:15;;;;;;;17.65;10.18;;;;;;;1.08;100.00;98875.16;4954187;28;20039;-63
2023/01/24 12:01:09;;;;;;;20.48;10.85;;;;;;;1.07;100.00;98880.63;4950905;28;20133;-62
2023/01/24 12:03:59;;;;;;;17.73;10.07;;;;;;;1.06;100.00;98878.97;4959193;28;20046;-63
2023/01/24 12:06:42;;;;;;;19.25;9.32;;;;;;;1.20;100.00;98877.56;4955387;28;20620;-62
2023/01/24 12:09:19;;;;;;;16.50;9.18;;;;;;;1.42;100.00;98877.09;4942256;28;20073;-64